sensor_id;sensor_type;location;lat;lon;timestamp;temperature;humidity
11666;DHT22;5889;51.350;6.708;2024-02-26T00:00:05;7.10;99.90
11666;DHT22;5889;51.350;6.708;2024-02-26T00:02:34;7.10;99.90
11666;DHT22;5889;51.350;6.708;2024-02-26T00:05:04;7.10;99.90
11666;DHT22;5889;51.350;6.708;2024-02-26T00:07:31;7.10;99.90
11666;DHT22;5889;51.350;6.708;2024-02-26T00:09:58;7.00;99.90
11666;DHT22;5889;51.350;6.708;2024-02-26T00:12:24;7.00;99.90
11666;DHT22;5889;51.350;6.708;2024-02-26T00:14:51;7.00;99.90
11666;DHT22;5889;51.350;6.708;2024-02-26T00:17:20;7.00;99.90
11666;DHT22;5889;51.350;6.708;2024-02-26T00:19:47;7.00;99.90
11666;DHT22;5889;51.350;6.708;2024-02-26T00:22:13;7.00;99.90
11666;DHT22;5889;51.350;6.708;2024-02-26T00:24:40;7.00;99.90
11666;DHT22;5889;51.350;6.708;2024-02-26T00:27:07;7.10;99.90
11666;DHT22;5889;51.350;6.708;2024-02-26T00:29:34;7.10;99.90
11666;DHT22;5889;51.350;6.708;2024-02-26T00:32:01;7.10;99.90
11666;DHT22;5889;51.350;6.708;2024-02-26T00:34:29;7.10;99.90
11666;DHT22;5889;51.350;6.708;2024-02-26T00:36:55;7.10;99.90
11666;DHT22;5889;51.350;6.708;2024-02-26T00:39:22;7.10;99.90
11666;DHT22;5889;51.350;6.708;2024-02-26T00:41:49;7.10;99.90
11666;DHT22;5889;51.350;6.708;2024-02-26T00:44:17;7.10;99.90
11666;DHT22;5889;51.350;6.708;2024-02-26T00:46:43;7.10;99.90
11666;DHT22;5889;51.350;6.708;2024-02-26T00:49:10;7.20;99.90
11666;DHT22;5889;51.350;6.708;2024-02-26T00:51:38;7.20;99.90
11666;DHT22;5889;51.350;6.708;2024-02-26T00:54:05;7.30;99.90
11666;DHT22;5889;51.350;6.708;2024-02-26T00:56:31;7.30;99.90
11666;DHT22;5889;51.350;6.708;2024-02-26T00:58:58;7.30;99.90
11666;DHT22;5889;51.350;6.708;2024-02-26T01:01:25;7.20;99.90
11666;DHT22;5889;51.350;6.708;2024-02-26T01:03:52;7.20;99.90
11666;DHT22;5889;51.350;6.708;2024-02-26T01:06:19;7.30;99.90
11666;DHT22;5889;51.350;6.708;2024-02-26T01:08:49;7.30;99.90
11666;DHT22;5889;51.350;6.708;2024-02-26T01:11:16;7.30;99.90
11666;DHT22;5889;51.350;6.708;2024-02-26T01:13:42;7.30;99.90
11666;DHT22;5889;51.350;6.708;2024-02-26T01:16:09;7.30;99.90
11666;DHT22;5889;51.350;6.708;2024-02-26T01:18:36;7.30;99.90
11666;DHT22;5889;51.350;6.708;2024-02-26T01:21:03;7.30;99.90
11666;DHT22;5889;51.350;6.708;2024-02-26T01:23:32;7.30;99.90
11666;DHT22;5889;51.350;6.708;2024-02-26T01:26:00;7.20;99.90
11666;DHT22;5889;51.350;6.708;2024-02-26T01:28:28;7.20;99.90
11666;DHT22;5889;51.350;6.708;2024-02-26T01:30:55;7.20;99.90
11666;DHT22;5889;51.350;6.708;2024-02-26T01:33:21;7.10;99.90
11666;DHT22;5889;51.350;6.708;2024-02-26T01:35:48;7.10;99.90
11666;DHT22;5889;51.350;6.708;2024-02-26T01:38:15;7.10;99.90
11666;DHT22;5889;51.350;6.708;2024-02-26T01:40:42;7.10;99.90
11666;DHT22;5889;51.350;6.708;2024-02-26T01:43:10;7.00;99.90
11666;DHT22;5889;51.350;6.708;2024-02-26T01:45:36;7.00;99.90
11666;DHT22;5889;51.350;6.708;2024-02-26T01:48:03;7.00;99.90
11666;DHT22;5889;51.350;6.708;2024-02-26T01:50:30;7.00;99.90
11666;DHT22;5889;51.350;6.708;2024-02-26T01:52:59;7.00;99.90
11666;DHT22;5889;51.350;6.708;2024-02-26T01:55:27;6.90;99.90
11666;DHT22;5889;51.350;6.708;2024-02-26T01:57:53;6.90;99.90
11666;DHT22;5889;51.350;6.708;2024-02-26T02:00:22;6.90;99.90
11666;DHT22;5889;51.350;6.708;2024-02-26T02:02:50;6.90;99.90
11666;DHT22;5889;51.350;6.708;2024-02-26T02:05:18;6.80;99.90
11666;DHT22;5889;51.350;6.708;2024-02-26T02:07:47;6.80;99.90
11666;DHT22;5889;51.350;6.708;2024-02-26T02:10:14;6.80;99.90
11666;DHT22;5889;51.350;6.708;2024-02-26T02:12:41;6.70;99.90
11666;DHT22;5889;51.350;6.708;2024-02-26T02:15:08;6.80;99.90
11666;DHT22;5889;51.350;6.708;2024-02-26T02:17:37;6.80;99.90
11666;DHT22;5889;51.350;6.708;2024-02-26T02:20:05;6.70;99.90
11666;DHT22;5889;51.350;6.708;2024-02-26T02:22:35;6.70;99.90
11666;DHT22;5889;51.350;6.708;2024-02-26T02:25:02;6.70;99.90
11666;DHT22;5889;51.350;6.708;2024-02-26T02:27:29;6.70;99.90
11666;DHT22;5889;51.350;6.708;2024-02-26T02:29:56;6.70;99.90
11666;DHT22;5889;51.350;6.708;2024-02-26T02:32:24;6.70;99.90
11666;DHT22;5889;51.350;6.708;2024-02-26T02:34:52;6.70;99.90
11666;DHT22;5889;51.350;6.708;2024-02-26T02:37:18;6.70;99.90
11666;DHT22;5889;51.350;6.708;2024-02-26T02:39:46;6.70;99.90
11666;DHT22;5889;51.350;6.708;2024-02-26T02:42:13;6.60;99.90
11666;DHT22;5889;51.350;6.708;2024-02-26T02:44:40;6.60;99.90
11666;DHT22;5889;51.350;6.708;2024-02-26T02:47:07;6.60;99.90
11666;DHT22;5889;51.350;6.708;2024-02-26T02:49:33;6.60;99.90
11666;DHT22;5889;51.350;6.708;2024-02-26T02:52:00;6.50;99.90
11666;DHT22;5889;51.350;6.708;2024-02-26T02:54:27;6.60;99.90
11666;DHT22;5889;51.350;6.708;2024-02-26T02:56:55;6.60;99.90
11666;DHT22;5889;51.350;6.708;2024-02-26T02:59:22;6.60;99.90
11666;DHT22;5889;51.350;6.708;2024-02-26T03:01:48;6.50;99.90
11666;DHT22;5889;51.350;6.708;2024-02-26T03:04:15;6.40;99.90
11666;DHT22;5889;51.350;6.708;2024-02-26T03:06:42;6.40;99.90
11666;DHT22;5889;51.350;6.708;2024-02-26T03:09:08;6.40;99.90
11666;DHT22;5889;51.350;6.708;2024-02-26T03:11:35;6.30;99.90
11666;DHT22;5889;51.350;6.708;2024-02-26T03:14:03;6.30;99.90
11666;DHT22;5889;51.350;6.708;2024-02-26T03:16:30;6.20;99.90
11666;DHT22;5889;51.350;6.708;2024-02-26T03:18:57;6.20;99.90
11666;DHT22;5889;51.350;6.708;2024-02-26T03:21:25;6.10;99.90
11666;DHT22;5889;51.350;6.708;2024-02-26T03:23:51;6.10;99.90
11666;DHT22;5889;51.350;6.708;2024-02-26T03:26:18;6.10;99.90
11666;DHT22;5889;51.350;6.708;2024-02-26T03:28:45;6.10;99.90
11666;DHT22;5889;51.350;6.708;2024-02-26T03:31:13;6.10;99.90
11666;DHT22;5889;51.350;6.708;2024-02-26T03:33:40;6.10;99.90
11666;DHT22;5889;51.350;6.708;2024-02-26T03:36:07;6.10;99.90
11666;DHT22;5889;51.350;6.708;2024-02-26T03:38:33;6.10;99.90
11666;DHT22;5889;51.350;6.708;2024-02-26T03:41:00;6.00;99.90
11666;DHT22;5889;51.350;6.708;2024-02-26T03:43:27;6.00;99.90
11666;DHT22;5889;51.350;6.708;2024-02-26T03:45:54;6.00;99.90
11666;DHT22;5889;51.350;6.708;2024-02-26T03:48:22;6.00;99.90
11666;DHT22;5889;51.350;6.708;2024-02-26T03:50:48;5.90;99.90
11666;DHT22;5889;51.350;6.708;2024-02-26T03:53:15;5.90;99.90
11666;DHT22;5889;51.350;6.708;2024-02-26T03:55:42;5.90;99.90
11666;DHT22;5889;51.350;6.708;2024-02-26T03:58:08;5.90;99.90
11666;DHT22;5889;51.350;6.708;2024-02-26T04:00:35;5.90;99.90
11666;DHT22;5889;51.350;6.708;2024-02-26T04:03:02;5.80;99.90
11666;DHT22;5889;51.350;6.708;2024-02-26T04:05:30;5.80;99.90
11666;DHT22;5889;51.350;6.708;2024-02-26T04:07:56;5.80;99.90
11666;DHT22;5889;51.350;6.708;2024-02-26T04:10:23;5.80;99.90
11666;DHT22;5889;51.350;6.708;2024-02-26T04:12:50;5.80;99.90
11666;DHT22;5889;51.350;6.708;2024-02-26T04:15:17;5.80;99.90
11666;DHT22;5889;51.350;6.708;2024-02-26T04:17:44;5.80;99.90
11666;DHT22;5889;51.350;6.708;2024-02-26T04:20:14;5.80;99.90
11666;DHT22;5889;51.350;6.708;2024-02-26T04:22:42;5.80;99.90
11666;DHT22;5889;51.350;6.708;2024-02-26T04:25:09;5.80;99.90
11666;DHT22;5889;51.350;6.708;2024-02-26T04:27:36;5.70;99.90
11666;DHT22;5889;51.350;6.708;2024-02-26T04:30:04;5.70;99.90
11666;DHT22;5889;51.350;6.708;2024-02-26T04:32:31;5.80;99.90
11666;DHT22;5889;51.350;6.708;2024-02-26T04:34:58;5.80;99.90
11666;DHT22;5889;51.350;6.708;2024-02-26T04:37:25;5.80;99.90
11666;DHT22;5889;51.350;6.708;2024-02-26T04:39:57;5.70;99.90
11666;DHT22;5889;51.350;6.708;2024-02-26T04:42:24;5.80;99.90
11666;DHT22;5889;51.350;6.708;2024-02-26T04:44:51;5.70;99.90
11666;DHT22;5889;51.350;6.708;2024-02-26T04:47:18;5.70;99.90
11666;DHT22;5889;51.350;6.708;2024-02-26T04:49:44;5.70;99.90
11666;DHT22;5889;51.350;6.708;2024-02-26T04:52:11;5.70;99.90
11666;DHT22;5889;51.350;6.708;2024-02-26T04:54:38;5.70;99.90
11666;DHT22;5889;51.350;6.708;2024-02-26T04:57:06;5.70;99.90
11666;DHT22;5889;51.350;6.708;2024-02-26T04:59:33;5.70;99.90
11666;DHT22;5889;51.350;6.708;2024-02-26T05:01:59;5.60;99.90
11666;DHT22;5889;51.350;6.708;2024-02-26T05:04:26;5.60;99.90
11666;DHT22;5889;51.350;6.708;2024-02-26T05:06:53;5.50;99.90
11666;DHT22;5889;51.350;6.708;2024-02-26T05:09:20;5.60;99.90
11666;DHT22;5889;51.350;6.708;2024-02-26T05:11:47;5.50;99.90
11666;DHT22;5889;51.350;6.708;2024-02-26T05:14:15;5.50;99.90
11666;DHT22;5889;51.350;6.708;2024-02-26T05:16:42;5.50;99.90
11666;DHT22;5889;51.350;6.708;2024-02-26T05:19:08;5.40;99.90
11666;DHT22;5889;51.350;6.708;2024-02-26T05:21:35;5.40;99.90
11666;DHT22;5889;51.350;6.708;2024-02-26T05:24:02;5.40;99.90
11666;DHT22;5889;51.350;6.708;2024-02-26T05:26:29;5.30;99.90
11666;DHT22;5889;51.350;6.708;2024-02-26T05:28:55;5.30;99.90
11666;DHT22;5889;51.350;6.708;2024-02-26T05:31:26;5.40;99.90
11666;DHT22;5889;51.350;6.708;2024-02-26T05:33:54;5.40;99.90
11666;DHT22;5889;51.350;6.708;2024-02-26T05:36:21;5.40;99.90
11666;DHT22;5889;51.350;6.708;2024-02-26T05:38:48;5.30;99.90
11666;DHT22;5889;51.350;6.708;2024-02-26T05:41:16;5.40;99.90
11666;DHT22;5889;51.350;6.708;2024-02-26T05:43:48;5.30;99.90
11666;DHT22;5889;51.350;6.708;2024-02-26T05:46:16;5.30;99.90
11666;DHT22;5889;51.350;6.708;2024-02-26T05:48:44;5.30;99.90
11666;DHT22;5889;51.350;6.708;2024-02-26T05:51:11;5.20;99.90
11666;DHT22;5889;51.350;6.708;2024-02-26T05:53:37;5.30;99.90
11666;DHT22;5889;51.350;6.708;2024-02-26T05:56:05;5.20;99.90
11666;DHT22;5889;51.350;6.708;2024-02-26T05:58:32;5.30;99.90
11666;DHT22;5889;51.350;6.708;2024-02-26T06:00:59;5.30;99.90
11666;DHT22;5889;51.350;6.708;2024-02-26T06:03:26;5.30;99.90
11666;DHT22;5889;51.350;6.708;2024-02-26T06:05:54;5.30;99.90
11666;DHT22;5889;51.350;6.708;2024-02-26T06:08:21;5.30;99.90
11666;DHT22;5889;51.350;6.708;2024-02-26T06:10:47;5.30;99.90
11666;DHT22;5889;51.350;6.708;2024-02-26T06:13:14;5.30;99.90
11666;DHT22;5889;51.350;6.708;2024-02-26T06:15:41;5.20;99.90
11666;DHT22;5889;51.350;6.708;2024-02-26T06:18:08;5.30;99.90
11666;DHT22;5889;51.350;6.708;2024-02-26T06:20:34;5.30;99.90
11666;DHT22;5889;51.350;6.708;2024-02-26T06:23:02;5.30;99.90
11666;DHT22;5889;51.350;6.708;2024-02-26T06:25:29;5.30;99.90
11666;DHT22;5889;51.350;6.708;2024-02-26T06:27:56;5.30;99.90
11666;DHT22;5889;51.350;6.708;2024-02-26T06:30:23;5.30;99.90
11666;DHT22;5889;51.350;6.708;2024-02-26T06:32:51;5.30;99.90
11666;DHT22;5889;51.350;6.708;2024-02-26T06:35:18;5.30;99.90
11666;DHT22;5889;51.350;6.708;2024-02-26T06:37:44;5.30;99.90
11666;DHT22;5889;51.350;6.708;2024-02-26T06:40:13;5.40;99.90
11666;DHT22;5889;51.350;6.708;2024-02-26T06:42:39;5.30;99.90
11666;DHT22;5889;51.350;6.708;2024-02-26T06:45:07;5.30;99.90
11666;DHT22;5889;51.350;6.708;2024-02-26T06:47:33;5.30;99.90
11666;DHT22;5889;51.350;6.708;2024-02-26T06:50:00;5.40;99.90
11666;DHT22;5889;51.350;6.708;2024-02-26T06:52:27;5.30;99.90
11666;DHT22;5889;51.350;6.708;2024-02-26T06:54:54;5.40;99.90
11666;DHT22;5889;51.350;6.708;2024-02-26T06:57:22;5.30;99.90
11666;DHT22;5889;51.350;6.708;2024-02-26T06:59:49;5.30;99.90
11666;DHT22;5889;51.350;6.708;2024-02-26T07:02:16;5.30;99.90
11666;DHT22;5889;51.350;6.708;2024-02-26T07:04:42;5.30;99.90
11666;DHT22;5889;51.350;6.708;2024-02-26T07:07:09;5.40;99.90
11666;DHT22;5889;51.350;6.708;2024-02-26T07:09:36;5.30;99.90
11666;DHT22;5889;51.350;6.708;2024-02-26T07:12:03;5.40;99.90
11666;DHT22;5889;51.350;6.708;2024-02-26T07:14:32;5.40;99.90
11666;DHT22;5889;51.350;6.708;2024-02-26T07:16:59;5.40;99.90
11666;DHT22;5889;51.350;6.708;2024-02-26T07:19:26;5.40;99.90
11666;DHT22;5889;51.350;6.708;2024-02-26T07:21:52;5.40;99.90
11666;DHT22;5889;51.350;6.708;2024-02-26T07:24:19;5.50;99.90
11666;DHT22;5889;51.350;6.708;2024-02-26T07:26:46;5.40;99.90
11666;DHT22;5889;51.350;6.708;2024-02-26T07:29:12;5.50;99.90
11666;DHT22;5889;51.350;6.708;2024-02-26T07:31:40;5.50;99.90
11666;DHT22;5889;51.350;6.708;2024-02-26T07:34:07;5.50;99.90
11666;DHT22;5889;51.350;6.708;2024-02-26T07:36:34;5.50;99.90
11666;DHT22;5889;51.350;6.708;2024-02-26T07:39:01;5.50;99.90
11666;DHT22;5889;51.350;6.708;2024-02-26T07:41:27;5.50;99.90
11666;DHT22;5889;51.350;6.708;2024-02-26T07:43:53;5.60;99.90
11666;DHT22;5889;51.350;6.708;2024-02-26T07:46:20;5.60;99.90
11666;DHT22;5889;51.350;6.708;2024-02-26T07:48:48;5.60;99.90
11666;DHT22;5889;51.350;6.708;2024-02-26T07:51:15;5.60;99.90
11666;DHT22;5889;51.350;6.708;2024-02-26T07:53:42;5.60;99.90
11666;DHT22;5889;51.350;6.708;2024-02-26T07:56:09;5.50;99.90
11666;DHT22;5889;51.350;6.708;2024-02-26T07:58:36;5.50;99.90
11666;DHT22;5889;51.350;6.708;2024-02-26T08:01:03;5.50;99.90
11666;DHT22;5889;51.350;6.708;2024-02-26T08:03:30;5.50;99.90
11666;DHT22;5889;51.350;6.708;2024-02-26T08:05:58;5.50;99.90
11666;DHT22;5889;51.350;6.708;2024-02-26T08:08:24;5.50;99.90
11666;DHT22;5889;51.350;6.708;2024-02-26T08:10:51;5.50;99.90
11666;DHT22;5889;51.350;6.708;2024-02-26T08:13:18;5.50;99.90
11666;DHT22;5889;51.350;6.708;2024-02-26T08:15:45;5.50;99.90
11666;DHT22;5889;51.350;6.708;2024-02-26T08:18:11;5.50;99.90
11666;DHT22;5889;51.350;6.708;2024-02-26T08:20:38;5.50;99.90
11666;DHT22;5889;51.350;6.708;2024-02-26T08:23:06;5.50;99.90
11666;DHT22;5889;51.350;6.708;2024-02-26T08:25:33;5.50;99.90
11666;DHT22;5889;51.350;6.708;2024-02-26T08:27:59;5.50;99.90
11666;DHT22;5889;51.350;6.708;2024-02-26T08:30:26;5.50;99.90
11666;DHT22;5889;51.350;6.708;2024-02-26T08:32:53;5.50;99.90
11666;DHT22;5889;51.350;6.708;2024-02-26T08:35:20;5.50;99.90
11666;DHT22;5889;51.350;6.708;2024-02-26T08:37:50;5.60;99.90
11666;DHT22;5889;51.350;6.708;2024-02-26T08:40:18;5.60;99.90
11666;DHT22;5889;51.350;6.708;2024-02-26T08:42:45;5.60;99.90
11666;DHT22;5889;51.350;6.708;2024-02-26T08:45:11;5.60;99.90
11666;DHT22;5889;51.350;6.708;2024-02-26T08:47:39;5.60;99.90
11666;DHT22;5889;51.350;6.708;2024-02-26T08:50:06;5.60;99.90
11666;DHT22;5889;51.350;6.708;2024-02-26T08:52:35;5.70;99.90
11666;DHT22;5889;51.350;6.708;2024-02-26T08:55:02;5.70;99.90
11666;DHT22;5889;51.350;6.708;2024-02-26T08:57:31;5.70;99.90
11666;DHT22;5889;51.350;6.708;2024-02-26T08:59:59;5.70;99.90
11666;DHT22;5889;51.350;6.708;2024-02-26T09:02:26;5.70;99.90
11666;DHT22;5889;51.350;6.708;2024-02-26T09:04:52;5.70;99.90
11666;DHT22;5889;51.350;6.708;2024-02-26T09:07:20;5.70;99.90
11666;DHT22;5889;51.350;6.708;2024-02-26T09:09:47;5.70;99.90
11666;DHT22;5889;51.350;6.708;2024-02-26T09:12:14;5.70;99.90
11666;DHT22;5889;51.350;6.708;2024-02-26T09:14:42;5.70;99.90
11666;DHT22;5889;51.350;6.708;2024-02-26T09:17:09;5.70;99.90
11666;DHT22;5889;51.350;6.708;2024-02-26T09:19:36;5.80;99.90
11666;DHT22;5889;51.350;6.708;2024-02-26T09:22:03;5.80;99.90
11666;DHT22;5889;51.350;6.708;2024-02-26T09:24:30;5.80;99.90
11666;DHT22;5889;51.350;6.708;2024-02-26T09:26:57;5.70;99.90
11666;DHT22;5889;51.350;6.708;2024-02-26T09:29:29;5.80;99.90
11666;DHT22;5889;51.350;6.708;2024-02-26T09:31:58;5.80;99.90
11666;DHT22;5889;51.350;6.708;2024-02-26T09:34:33;5.80;99.90
11666;DHT22;5889;51.350;6.708;2024-02-26T09:37:00;5.80;99.90
11666;DHT22;5889;51.350;6.708;2024-02-26T09:39:27;5.80;99.90
11666;DHT22;5889;51.350;6.708;2024-02-26T09:41:54;5.80;99.90
11666;DHT22;5889;51.350;6.708;2024-02-26T09:44:23;5.80;99.90
11666;DHT22;5889;51.350;6.708;2024-02-26T09:46:52;5.80;99.90
11666;DHT22;5889;51.350;6.708;2024-02-26T09:49:23;5.80;99.90
11666;DHT22;5889;51.350;6.708;2024-02-26T09:51:52;5.80;99.90
11666;DHT22;5889;51.350;6.708;2024-02-26T09:54:20;5.80;99.90
11666;DHT22;5889;51.350;6.708;2024-02-26T09:56:49;5.90;99.90
11666;DHT22;5889;51.350;6.708;2024-02-26T09:59:17;5.90;99.90
11666;DHT22;5889;51.350;6.708;2024-02-26T10:01:45;5.90;99.90
11666;DHT22;5889;51.350;6.708;2024-02-26T10:04:13;5.90;99.90
11666;DHT22;5889;51.350;6.708;2024-02-26T10:06:42;5.90;99.90
11666;DHT22;5889;51.350;6.708;2024-02-26T10:09:10;5.90;99.90
11666;DHT22;5889;51.350;6.708;2024-02-26T10:11:38;5.90;99.90
11666;DHT22;5889;51.350;6.708;2024-02-26T10:14:08;5.90;99.90
11666;DHT22;5889;51.350;6.708;2024-02-26T10:16:36;6.00;99.90
11666;DHT22;5889;51.350;6.708;2024-02-26T10:19:03;6.00;99.90
11666;DHT22;5889;51.350;6.708;2024-02-26T10:21:30;6.00;99.90
11666;DHT22;5889;51.350;6.708;2024-02-26T10:23:59;6.10;99.90
11666;DHT22;5889;51.350;6.708;2024-02-26T10:26:25;6.10;99.90
11666;DHT22;5889;51.350;6.708;2024-02-26T10:28:52;6.10;99.90
11666;DHT22;5889;51.350;6.708;2024-02-26T10:31:19;6.10;99.90
11666;DHT22;5889;51.350;6.708;2024-02-26T10:33:46;6.20;99.90
11666;DHT22;5889;51.350;6.708;2024-02-26T10:36:14;6.20;99.90
11666;DHT22;5889;51.350;6.708;2024-02-26T10:38:41;6.20;99.90
11666;DHT22;5889;51.350;6.708;2024-02-26T10:41:13;6.20;99.90
11666;DHT22;5889;51.350;6.708;2024-02-26T10:43:42;6.20;99.90
11666;DHT22;5889;51.350;6.708;2024-02-26T10:46:09;6.30;99.90
11666;DHT22;5889;51.350;6.708;2024-02-26T10:48:36;6.40;99.90
11666;DHT22;5889;51.350;6.708;2024-02-26T10:51:04;6.40;99.90
11666;DHT22;5889;51.350;6.708;2024-02-26T10:53:31;6.40;99.90
11666;DHT22;5889;51.350;6.708;2024-02-26T10:56:04;6.40;99.90
11666;DHT22;5889;51.350;6.708;2024-02-26T10:58:33;6.40;99.90
11666;DHT22;5889;51.350;6.708;2024-02-26T11:01:01;6.40;99.90
11666;DHT22;5889;51.350;6.708;2024-02-26T11:03:31;6.50;99.90
11666;DHT22;5889;51.350;6.708;2024-02-26T11:05:58;6.50;99.90
11666;DHT22;5889;51.350;6.708;2024-02-26T11:08:26;6.60;99.90
11666;DHT22;5889;51.350;6.708;2024-02-26T11:10:54;6.60;99.90
11666;DHT22;5889;51.350;6.708;2024-02-26T11:13:22;6.60;99.90
11666;DHT22;5889;51.350;6.708;2024-02-26T11:15:53;6.50;99.90
11666;DHT22;5889;51.350;6.708;2024-02-26T11:18:23;6.50;99.90
11666;DHT22;5889;51.350;6.708;2024-02-26T11:20:54;6.50;99.90
11666;DHT22;5889;51.350;6.708;2024-02-26T11:23:23;6.50;99.90
11666;DHT22;5889;51.350;6.708;2024-02-26T11:25:51;6.50;99.90
11666;DHT22;5889;51.350;6.708;2024-02-26T11:28:19;6.50;99.90
11666;DHT22;5889;51.350;6.708;2024-02-26T11:30:48;6.50;99.90
11666;DHT22;5889;51.350;6.708;2024-02-26T11:33:19;6.60;99.90
11666;DHT22;5889;51.350;6.708;2024-02-26T11:35:46;6.60;99.90
11666;DHT22;5889;51.350;6.708;2024-02-26T11:38:19;6.60;99.90
11666;DHT22;5889;51.350;6.708;2024-02-26T11:40:47;6.70;99.90
11666;DHT22;5889;51.350;6.708;2024-02-26T11:43:14;6.80;99.90
11666;DHT22;5889;51.350;6.708;2024-02-26T11:45:54;6.90;99.90
11666;DHT22;5889;51.350;6.708;2024-02-26T11:48:28;7.00;99.90
11666;DHT22;5889;51.350;6.708;2024-02-26T11:50:56;7.10;99.90
11666;DHT22;5889;51.350;6.708;2024-02-26T11:53:25;7.10;99.90
11666;DHT22;5889;51.350;6.708;2024-02-26T11:56:13;7.20;99.90
11666;DHT22;5889;51.350;6.708;2024-02-26T11:58:40;7.30;99.90
11666;DHT22;5889;51.350;6.708;2024-02-26T12:04:12;7.30;99.90
11666;DHT22;5889;51.350;6.708;2024-02-26T12:06:45;7.30;99.90
11666;DHT22;5889;51.350;6.708;2024-02-26T12:09:12;7.30;99.90
11666;DHT22;5889;51.350;6.708;2024-02-26T12:11:40;7.20;99.90
11666;DHT22;5889;51.350;6.708;2024-02-26T12:14:09;7.20;99.90
11666;DHT22;5889;51.350;6.708;2024-02-26T12:16:37;7.20;99.90
11666;DHT22;5889;51.350;6.708;2024-02-26T12:19:09;7.20;99.90
11666;DHT22;5889;51.350;6.708;2024-02-26T12:21:36;7.30;99.90
11666;DHT22;5889;51.350;6.708;2024-02-26T12:24:11;7.30;99.90
11666;DHT22;5889;51.350;6.708;2024-02-26T12:26:39;7.30;99.90
11666;DHT22;5889;51.350;6.708;2024-02-26T12:29:06;7.30;99.90
11666;DHT22;5889;51.350;6.708;2024-02-26T12:31:34;7.30;99.90
11666;DHT22;5889;51.350;6.708;2024-02-26T12:34:02;7.30;99.90
11666;DHT22;5889;51.350;6.708;2024-02-26T12:36:31;7.30;99.90
11666;DHT22;5889;51.350;6.708;2024-02-26T12:39:00;7.40;99.90
11666;DHT22;5889;51.350;6.708;2024-02-26T12:41:27;7.40;99.90
11666;DHT22;5889;51.350;6.708;2024-02-26T12:43:55;7.40;99.90
11666;DHT22;5889;51.350;6.708;2024-02-26T12:46:23;7.40;99.90
11666;DHT22;5889;51.350;6.708;2024-02-26T12:48:50;7.40;99.90
11666;DHT22;5889;51.350;6.708;2024-02-26T12:51:17;7.30;99.90
11666;DHT22;5889;51.350;6.708;2024-02-26T12:53:46;7.30;99.90
11666;DHT22;5889;51.350;6.708;2024-02-26T12:56:16;7.40;99.90
11666;DHT22;5889;51.350;6.708;2024-02-26T12:58:43;7.30;99.90
11666;DHT22;5889;51.350;6.708;2024-02-26T13:01:14;7.30;99.90
11666;DHT22;5889;51.350;6.708;2024-02-26T13:03:43;7.30;99.90
11666;DHT22;5889;51.350;6.708;2024-02-26T13:06:11;7.30;99.90
11666;DHT22;5889;51.350;6.708;2024-02-26T13:08:38;7.30;99.90
11666;DHT22;5889;51.350;6.708;2024-02-26T13:11:07;7.30;99.90
11666;DHT22;5889;51.350;6.708;2024-02-26T13:13:35;7.30;99.90
11666;DHT22;5889;51.350;6.708;2024-02-26T13:16:03;7.30;99.90
11666;DHT22;5889;51.350;6.708;2024-02-26T13:18:32;7.30;99.90
11666;DHT22;5889;51.350;6.708;2024-02-26T13:21:12;7.30;99.90
11666;DHT22;5889;51.350;6.708;2024-02-26T13:23:41;7.30;99.90
11666;DHT22;5889;51.350;6.708;2024-02-26T13:26:12;7.30;99.90
11666;DHT22;5889;51.350;6.708;2024-02-26T13:28:40;7.40;99.90
11666;DHT22;5889;51.350;6.708;2024-02-26T13:31:08;7.40;99.90
11666;DHT22;5889;51.350;6.708;2024-02-26T13:33:35;7.40;99.90
11666;DHT22;5889;51.350;6.708;2024-02-26T13:36:03;7.40;99.90
11666;DHT22;5889;51.350;6.708;2024-02-26T13:38:30;7.40;99.90
11666;DHT22;5889;51.350;6.708;2024-02-26T13:40:57;7.40;99.90
11666;DHT22;5889;51.350;6.708;2024-02-26T13:43:29;7.40;99.90
11666;DHT22;5889;51.350;6.708;2024-02-26T13:45:56;7.50;99.90
11666;DHT22;5889;51.350;6.708;2024-02-26T13:48:33;7.40;99.90
11666;DHT22;5889;51.350;6.708;2024-02-26T13:51:00;7.40;99.90
11666;DHT22;5889;51.350;6.708;2024-02-26T13:53:30;7.50;99.90
11666;DHT22;5889;51.350;6.708;2024-02-26T13:55:57;7.50;99.90
11666;DHT22;5889;51.350;6.708;2024-02-26T13:58:27;7.50;99.90
11666;DHT22;5889;51.350;6.708;2024-02-26T14:00:56;7.50;99.90
11666;DHT22;5889;51.350;6.708;2024-02-26T14:03:25;7.50;99.90
11666;DHT22;5889;51.350;6.708;2024-02-26T14:05:52;7.50;99.90
11666;DHT22;5889;51.350;6.708;2024-02-26T14:08:19;7.50;99.90
11666;DHT22;5889;51.350;6.708;2024-02-26T14:10:46;7.50;99.90
11666;DHT22;5889;51.350;6.708;2024-02-26T14:13:13;7.50;99.90
11666;DHT22;5889;51.350;6.708;2024-02-26T14:15:43;7.40;99.90
11666;DHT22;5889;51.350;6.708;2024-02-26T14:18:11;7.40;99.90
11666;DHT22;5889;51.350;6.708;2024-02-26T14:20:38;7.40;99.90
11666;DHT22;5889;51.350;6.708;2024-02-26T14:23:06;7.50;99.90
11666;DHT22;5889;51.350;6.708;2024-02-26T14:25:33;7.50;99.90
11666;DHT22;5889;51.350;6.708;2024-02-26T14:28:00;7.50;99.90
11666;DHT22;5889;51.350;6.708;2024-02-26T14:30:27;7.50;99.90
11666;DHT22;5889;51.350;6.708;2024-02-26T14:32:54;7.50;99.90
11666;DHT22;5889;51.350;6.708;2024-02-26T14:35:23;7.50;99.90
11666;DHT22;5889;51.350;6.708;2024-02-26T14:37:50;7.50;99.90
11666;DHT22;5889;51.350;6.708;2024-02-26T14:40:17;7.50;99.90
11666;DHT22;5889;51.350;6.708;2024-02-26T14:42:45;7.50;99.90
11666;DHT22;5889;51.350;6.708;2024-02-26T14:45:12;7.40;99.90
11666;DHT22;5889;51.350;6.708;2024-02-26T14:47:39;7.40;99.90
11666;DHT22;5889;51.350;6.708;2024-02-26T14:50:06;7.40;99.90
11666;DHT22;5889;51.350;6.708;2024-02-26T14:52:35;7.40;99.90
11666;DHT22;5889;51.350;6.708;2024-02-26T14:55:02;7.40;99.90
11666;DHT22;5889;51.350;6.708;2024-02-26T14:57:29;7.40;99.90
11666;DHT22;5889;51.350;6.708;2024-02-26T14:59:56;7.40;99.90
11666;DHT22;5889;51.350;6.708;2024-02-26T15:02:23;7.40;99.90
11666;DHT22;5889;51.350;6.708;2024-02-26T15:04:50;7.30;99.90
11666;DHT22;5889;51.350;6.708;2024-02-26T15:07:17;7.40;99.90
11666;DHT22;5889;51.350;6.708;2024-02-26T15:09:47;7.40;99.90
11666;DHT22;5889;51.350;6.708;2024-02-26T15:12:14;7.30;99.90
11666;DHT22;5889;51.350;6.708;2024-02-26T15:14:43;7.40;99.90
11666;DHT22;5889;51.350;6.708;2024-02-26T15:17:13;7.30;99.90
11666;DHT22;5889;51.350;6.708;2024-02-26T15:19:40;7.40;99.90
11666;DHT22;5889;51.350;6.708;2024-02-26T15:22:07;7.40;99.90
11666;DHT22;5889;51.350;6.708;2024-02-26T15:24:34;7.30;99.90
11666;DHT22;5889;51.350;6.708;2024-02-26T15:27:02;7.40;99.90
11666;DHT22;5889;51.350;6.708;2024-02-26T15:29:29;7.40;99.90
11666;DHT22;5889;51.350;6.708;2024-02-26T15:31:56;7.30;99.90
11666;DHT22;5889;51.350;6.708;2024-02-26T15:34:24;7.30;99.90
11666;DHT22;5889;51.350;6.708;2024-02-26T15:36:51;7.30;99.90
11666;DHT22;5889;51.350;6.708;2024-02-26T15:39:18;7.30;99.90
11666;DHT22;5889;51.350;6.708;2024-02-26T15:41:46;7.20;99.90
11666;DHT22;5889;51.350;6.708;2024-02-26T15:44:14;7.30;99.90
11666;DHT22;5889;51.350;6.708;2024-02-26T15:46:41;7.30;99.90
11666;DHT22;5889;51.350;6.708;2024-02-26T15:49:08;7.30;99.90
11666;DHT22;5889;51.350;6.708;2024-02-26T15:51:35;7.20;99.90
11666;DHT22;5889;51.350;6.708;2024-02-26T15:54:02;7.30;99.90
11666;DHT22;5889;51.350;6.708;2024-02-26T15:56:29;7.30;99.90
11666;DHT22;5889;51.350;6.708;2024-02-26T15:58:58;7.30;99.90
11666;DHT22;5889;51.350;6.708;2024-02-26T16:01:26;7.30;99.90
11666;DHT22;5889;51.350;6.708;2024-02-26T16:03:53;7.30;99.90
11666;DHT22;5889;51.350;6.708;2024-02-26T16:06:25;7.30;99.90